Time;durP1;ratioP1;P1;durP2;ratioP2;P2;SDS_P1;SDS_P2;PMS_P1;PMS_P2;Temp;Humidity;BMP_temperature;BMP_pressure;BME280_temperature;BME280_humidity;BME280_pressure;Samples;Min_cycle;Max_cycle;Signal;HPM_P1;HPM_P2
2021/06/28 00:00:32;;;;;;;2.30;1.92;;;17.90;99.90;;;;;;5016553;28;20183;-78
2021/06/28 00:02:58;;;;;;;2.13;1.75;;;17.90;99.90;;;;;;5017045;28;20203;-78
2021/06/28 00:05:24;;;;;;;2.30;2.00;;;17.90;99.90;;;;;;5016246;28;20183;-79
2021/06/28 00:07:50;;;;;;;2.00;1.88;;;17.90;99.90;;;;;;5017828;28;20230;-79
2021/06/28 00:10:18;;;;;;;2.15;1.95;;;17.90;99.90;;;;;;5016343;28;20269;-79
2021/06/28 00:12:44;;;;;;;2.30;1.73;;;17.90;99.90;;;;;;5017773;28;20225;-79
2021/06/28 00:15:13;;;;;;;2.53;2.10;;;18.00;99.90;;;;;;5016511;28;20195;-77
2021/06/28 00:17:40;;;;;;;2.35;1.75;;;17.90;99.90;;;;;;5020029;28;20215;-80
2021/06/28 00:20:07;;;;;;;2.55;1.77;;;17.90;99.90;;;;;;5017802;28;20208;-79
2021/06/28 00:22:33;;;;;;;1.73;1.63;;;17.90;99.90;;;;;;5018379;28;20183;-79
2021/06/28 00:24:59;;;;;;;3.33;2.08;;;18.00;99.90;;;;;;5018438;28;20261;-79
2021/06/28 00:27:25;;;;;;;2.00;1.50;;;17.90;99.90;;;;;;5016508;28;20199;-78
2021/06/28 00:29:51;;;;;;;2.33;2.13;;;18.00;99.90;;;;;;5017838;28;20218;-80
2021/06/28 00:32:17;;;;;;;1.90;1.70;;;18.00;99.90;;;;;;5021505;28;20219;-80
2021/06/28 00:34:43;;;;;;;1.92;1.70;;;18.00;99.90;;;;;;5020733;28;20178;-78
2021/06/28 00:37:09;;;;;;;2.03;1.88;;;17.90;99.90;;;;;;5018540;28;20242;-81
2021/06/28 00:39:34;;;;;;;1.88;1.58;;;18.00;99.90;;;;;;5016531;28;20218;-80
2021/06/28 00:42:00;;;;;;;3.00;1.88;;;18.00;99.90;;;;;;5016850;28;20179;-78
2021/06/28 00:44:25;;;;;;;2.13;1.70;;;18.00;99.90;;;;;;5014744;28;20214;-80
2021/06/28 00:46:51;;;;;;;1.83;1.67;;;18.00;99.90;;;;;;5020640;28;20234;-79
2021/06/28 00:49:17;;;;;;;1.92;1.60;;;18.00;99.90;;;;;;5016145;28;20182;-79
2021/06/28 00:51:44;;;;;;;1.80;1.63;;;18.00;99.90;;;;;;5018840;28;20540;-79
2021/06/28 00:54:10;;;;;;;2.15;1.85;;;18.10;99.90;;;;;;5020806;28;20201;-79
2021/06/28 00:56:36;;;;;;;1.75;1.50;;;18.10;99.90;;;;;;5014099;28;20211;-78
2021/06/28 00:59:03;;;;;;;3.08;2.20;;;18.10;99.90;;;;;;5018528;28;20208;-77
2021/06/28 01:01:29;;;;;;;2.35;1.85;;;18.00;99.90;;;;;;5017530;28;20681;-79
2021/06/28 01:03:55;;;;;;;2.35;1.73;;;18.00;99.90;;;;;;5020649;28;20187;-79
2021/06/28 01:06:20;;;;;;;2.50;2.28;;;18.00;99.90;;;;;;5018011;28;20214;-79
2021/06/28 01:08:46;;;;;;;2.10;1.88;;;18.00;99.90;;;;;;5018179;28;20282;-77
2021/06/28 01:11:13;;;;;;;1.73;1.58;;;18.00;99.90;;;;;;5019177;28;20184;-80
2021/06/28 01:13:42;;;;;;;1.58;1.40;;;18.00;99.90;;;;;;5016393;28;20632;-79
2021/06/28 01:16:09;;;;;;;4.43;2.40;;;18.00;99.90;;;;;;5018389;28;20946;-79
2021/06/28 01:18:35;;;;;;;1.65;1.42;;;18.00;99.90;;;;;;5017532;28;20235;-77
2021/06/28 01:21:01;;;;;;;2.20;1.85;;;18.00;99.90;;;;;;5016503;28;20178;-78
2021/06/28 01:23:29;;;;;;;1.70;1.60;;;18.00;99.90;;;;;;5015926;28;20627;-79
2021/06/28 01:26:00;;;;;;;2.47;2.17;;;18.00;99.90;;;;;;5019501;28;20680;-79
2021/06/28 01:28:27;;;;;;;1.70;1.40;;;18.00;99.90;;;;;;5017682;28;20183;-76
2021/06/28 01:30:54;;;;;;;2.22;1.92;;;18.00;99.90;;;;;;5017576;28;20649;-79
2021/06/28 01:33:20;;;;;;;2.33;2.13;;;18.00;99.90;;;;;;5021683;28;20220;-79
2021/06/28 01:35:46;;;;;;;2.38;2.13;;;17.90;99.90;;;;;;5013637;28;20189;-77
2021/06/28 01:38:12;;;;;;;1.90;1.63;;;17.90;99.90;;;;;;5016103;28;20187;-78
2021/06/28 01:40:39;;;;;;;2.03;1.83;;;17.90;99.90;;;;;;5016723;28;20237;-78
2021/06/28 01:43:05;;;;;;;2.92;1.60;;;17.90;99.90;;;;;;5013197;28;20262;-77
2021/06/28 01:45:32;;;;;;;2.55;1.80;;;17.90;99.90;;;;;;5015659;28;20204;-79
2021/06/28 01:47:58;;;;;;;1.77;1.55;;;17.90;99.90;;;;;;5021205;28;20214;-78
2021/06/28 01:50:26;;;;;;;1.95;1.75;;;17.90;99.90;;;;;;5018729;28;20188;-77
2021/06/28 01:52:53;;;;;;;1.55;1.33;;;18.00;99.90;;;;;;5018352;28;20232;-78
2021/06/28 01:55:20;;;;;;;1.73;1.63;;;18.00;99.90;;;;;;5016703;28;20310;-76
2021/06/28 01:57:48;;;;;;;2.10;1.70;;;18.00;99.90;;;;;;5020422;28;20877;-79
2021/06/28 02:00:18;;;;;;;2.80;1.77;;;17.90;99.90;;;;;;5019138;28;20709;-79
2021/06/28 02:03:13;;;;;;;2.22;1.80;;;17.90;99.90;;;;;;5016756;28;20207;-78
2021/06/28 02:05:47;;;;;;;2.30;1.80;;;17.80;99.90;;;;;;5019785;28;20179;-77
2021/06/28 02:08:15;;;;;;;1.80;1.65;;;17.70;99.90;;;;;;5018411;28;20183;-79
2021/06/28 02:10:46;;;;;;;2.13;1.92;;;17.70;99.90;;;;;;5016413;28;20208;-78
2021/06/28 02:13:12;;;;;;;1.83;1.70;;;17.70;99.90;;;;;;5022171;28;20192;-79
2021/06/28 02:15:37;;;;;;;5.20;2.10;;;17.70;99.90;;;;;;5020355;28;20199;-78
2021/06/28 02:18:03;;;;;;;1.60;1.50;;;17.70;99.90;;;;;;5019884;28;20240;-77
2021/06/28 02:20:29;;;;;;;2.22;1.70;;;17.70;99.90;;;;;;5021070;28;20275;-77
2021/06/28 02:23:11;;;;;;;2.20;1.77;;;17.70;99.90;;;;;;5020299;28;20918;-79
2021/06/28 02:25:37;;;;;;;1.55;1.45;;;17.70;99.90;;;;;;5018288;28;21313;-76
2021/06/28 02:28:03;;;;;;;2.17;1.77;;;17.70;99.90;;;;;;5021932;28;20187;-79
2021/06/28 02:30:28;;;;;;;1.92;1.63;;;17.70;99.90;;;;;;5022176;28;20183;-79
2021/06/28 02:32:54;;;;;;;1.95;1.73;;;17.70;99.90;;;;;;5017789;28;20214;-79
2021/06/28 02:35:19;;;;;;;1.75;1.65;;;17.80;99.90;;;;;;5020149;28;20580;-76
2021/06/28 02:37:45;;;;;;;2.40;2.15;;;17.80;99.90;;;;;;5022284;28;20261;-79
2021/06/28 02:40:12;;;;;;;4.85;2.10;;;17.70;99.90;;;;;;5015626;28;20218;-79
2021/06/28 02:42:39;;;;;;;2.05;1.75;;;17.70;99.90;;;;;;5021473;28;20224;-78
2021/06/28 02:45:07;;;;;;;2.65;1.83;;;17.70;99.90;;;;;;5020396;28;20179;-79
2021/06/28 02:47:32;;;;;;;1.98;1.70;;;17.70;99.90;;;;;;5016540;28;20571;-78
2021/06/28 02:49:58;;;;;;;2.40;2.05;;;17.70;99.90;;;;;;5019465;28;20187;-76
2021/06/28 02:52:23;;;;;;;1.63;1.52;;;17.80;99.90;;;;;;5021768;28;20365;-79
2021/06/28 02:54:49;;;;;;;5.13;1.90;;;17.80;99.90;;;;;;5020553;28;20191;-79
2021/06/28 02:57:15;;;;;;;2.30;2.10;;;17.80;99.90;;;;;;5022543;28;20265;-78
2021/06/28 02:59:40;;;;;;;3.00;1.67;;;17.80;99.90;;;;;;5021244;28;20218;-79
2021/06/28 03:02:06;;;;;;;2.03;1.83;;;17.80;99.90;;;;;;5022247;28;20192;-79
2021/06/28 03:04:31;;;;;;;1.90;1.75;;;17.70;99.90;;;;;;5019504;28;20214;-78
2021/06/28 03:06:57;;;;;;;2.45;1.67;;;17.80;99.90;;;;;;5020391;28;20886;-79
2021/06/28 03:09:23;;;;;;;2.05;1.85;;;17.80;99.90;;;;;;5019954;28;20188;-79
2021/06/28 03:11:48;;;;;;;1.90;1.70;;;17.90;99.90;;;;;;5020518;28;20521;-79
2021/06/28 03:14:14;;;;;;;1.90;1.60;;;17.90;99.90;;;;;;5018581;28;20192;-78
2021/06/28 03:16:39;;;;;;;1.92;1.48;;;17.90;99.90;;;;;;5018547;28;20231;-79
2021/06/28 03:19:05;;;;;;;1.90;1.70;;;17.90;99.90;;;;;;5020700;28;20227;-79
2021/06/28 03:21:30;;;;;;;2.95;1.98;;;18.00;99.90;;;;;;5021912;28;20222;-79
2021/06/28 03:23:56;;;;;;;2.70;1.80;;;18.00;99.90;;;;;;5020446;28;20206;-77
2021/06/28 03:26:22;;;;;;;2.38;1.65;;;18.00;99.90;;;;;;5018124;28;20204;-76
2021/06/28 03:28:47;;;;;;;2.22;1.95;;;18.00;99.90;;;;;;5014877;28;20630;-76
2021/06/28 03:31:13;;;;;;;1.63;1.52;;;18.00;99.90;;;;;;5016005;28;20183;-76
2021/06/28 03:33:38;;;;;;;2.25;1.30;;;18.10;99.90;;;;;;5016439;28;20662;-78
2021/06/28 03:36:05;;;;;;;2.22;1.75;;;18.10;99.90;;;;;;5016349;28;20589;-76
2021/06/28 03:38:31;;;;;;;1.92;1.75;;;18.00;99.90;;;;;;5016728;28;20626;-79
2021/06/28 03:40:59;;;;;;;2.03;1.40;;;18.10;99.90;;;;;;5376648;22;20238;-78
2021/06/28 03:43:32;;;;;;;2.35;1.80;;;18.00;99.90;;;;;;5121906;22;20649;31
2021/06/28 03:45:59;;;;;;;3.17;1.67;;;18.10;99.90;;;;;;5222667;22;20238;-79
2021/06/28 03:48:25;;;;;;;1.77;1.55;;;18.10;99.90;;;;;;5018882;28;20191;-77
2021/06/28 03:50:53;;;;;;;1.85;1.63;;;18.10;99.90;;;;;;5020678;28;20213;-79
2021/06/28 03:53:19;;;;;;;2.90;1.95;;;18.20;99.90;;;;;;5020023;28;20184;-79
2021/06/28 03:55:44;;;;;;;2.28;2.08;;;18.10;99.90;;;;;;5022276;28;20232;-79
2021/06/28 03:58:10;;;;;;;3.55;1.90;;;18.00;99.90;;;;;;5019818;28;20258;-79
2021/06/28 04:00:36;;;;;;;3.67;2.00;;;17.80;99.90;;;;;;5019243;28;20219;-78
2021/06/28 04:03:02;;;;;;;2.92;1.55;;;17.60;99.90;;;;;;5018132;28;20187;-79
2021/06/28 04:05:28;;;;;;;3.30;2.22;;;17.50;99.90;;;;;;5021245;28;20209;-79
2021/06/28 04:07:54;;;;;;;2.35;2.15;;;17.50;99.90;;;;;;5016796;28;20579;-79
2021/06/28 04:10:24;;;;;;;2.10;1.65;;;17.60;99.90;;;;;;5018325;28;20214;-79
2021/06/28 04:12:52;;;;;;;2.00;1.80;;;17.70;99.90;;;;;;5021259;28;20183;-79
2021/06/28 04:15:19;;;;;;;2.20;2.00;;;17.70;99.90;;;;;;5020192;28;20187;-78
2021/06/28 04:17:47;;;;;;;3.95;1.98;;;17.70;99.90;;;;;;5021215;28;20326;-80
2021/06/28 04:20:15;;;;;;;4.28;2.03;;;17.80;99.90;;;;;;5021985;28;20202;-79
2021/06/28 04:22:42;;;;;;;2.40;2.20;;;17.90;99.90;;;;;;5020424;28;20549;-79
2021/06/28 04:25:10;;;;;;;2.55;2.08;;;17.90;99.90;;;;;;5021598;28;20332;-78
2021/06/28 04:27:36;;;;;;;2.67;2.03;;;18.00;99.90;;;;;;5021121;28;20221;-80
2021/06/28 04:30:07;;;;;;;2.55;2.03;;;18.10;99.90;;;;;;5020112;28;20194;-79
2021/06/28 04:32:34;;;;;;;2.30;2.10;;;18.10;99.90;;;;;;5018914;28;20258;-80
2021/06/28 04:35:08;;;;;;;1.90;1.70;;;18.20;99.90;;;;;;5020514;28;20241;-78
2021/06/28 04:37:34;;;;;;;2.35;2.00;;;18.30;99.90;;;;;;5019292;28;20202;-79
2021/06/28 04:40:00;;;;;;;2.10;1.90;;;18.40;99.90;;;;;;5020441;28;20255;-79
2021/06/28 04:42:26;;;;;;;4.00;1.85;;;18.50;99.90;;;;;;5021091;28;20269;-80
2021/06/28 04:44:51;;;;;;;2.13;1.67;;;18.60;99.90;;;;;;5020098;28;20199;-80
2021/06/28 04:47:17;;;;;;;2.17;1.90;;;18.70;99.90;;;;;;5019347;28;20310;-80
2021/06/28 04:49:42;;;;;;;1.48;1.38;;;18.70;99.90;;;;;;5020188;28;20184;-80
2021/06/28 04:52:08;;;;;;;2.17;1.98;;;18.70;99.90;;;;;;5020480;28;20184;-78
2021/06/28 04:54:34;;;;;;;5.22;2.45;;;18.70;99.90;;;;;;5018666;28;20244;-79
2021/06/28 04:56:59;;;;;;;2.08;1.88;;;18.70;99.90;;;;;;5020826;28;20306;-79
2021/06/28 04:59:25;;;;;;;2.47;2.25;;;18.80;99.90;;;;;;5019832;28;20211;-79
2021/06/28 05:01:50;;;;;;;2.67;2.42;;;18.80;99.90;;;;;;5019698;28;20180;-78
2021/06/28 05:04:16;;;;;;;4.47;2.40;;;18.90;99.90;;;;;;5020782;28;20191;-79
2021/06/28 05:06:42;;;;;;;2.30;2.10;;;19.00;99.90;;;;;;5020997;28;20286;-78
2021/06/28 05:09:09;;;;;;;4.03;2.20;;;19.10;99.90;;;;;;5017380;28;20533;-80
2021/06/28 05:11:36;;;;;;;2.88;2.20;;;19.30;99.90;;;;;;5017384;28;20209;-79
2021/06/28 05:14:02;;;;;;;2.90;2.22;;;19.40;99.90;;;;;;5018722;28;20190;-79
2021/06/28 05:16:27;;;;;;;1.90;1.73;;;19.50;99.90;;;;;;5019495;28;20203;-80
2021/06/28 05:18:53;;;;;;;2.40;2.13;;;19.60;99.90;;;;;;5019422;28;20217;-79
2021/06/28 05:21:19;;;;;;;2.28;1.73;;;19.80;99.90;;;;;;5020498;28;20265;-80
2021/06/28 05:23:44;;;;;;;4.40;1.60;;;19.90;99.90;;;;;;5017439;28;20191;-79
2021/06/28 05:26:10;;;;;;;2.08;1.88;;;20.10;99.90;;;;;;5018298;28;20591;-80
2021/06/28 05:28:35;;;;;;;2.55;2.33;;;20.20;99.90;;;;;;5018498;28;20195;-80
2021/06/28 05:31:01;;;;;;;3.95;1.83;;;20.20;99.90;;;;;;5020621;28;20195;-80
2021/06/28 05:33:26;;;;;;;2.50;1.63;;;20.20;99.90;;;;;;5018600;28;20195;-79
2021/06/28 05:35:52;;;;;;;2.83;2.22;;;20.40;99.90;;;;;;5017665;28;20182;-80
2021/06/28 05:38:18;;;;;;;2.28;1.88;;;20.50;99.90;;;;;;5017985;28;20186;-80
2021/06/28 05:40:43;;;;;;;2.35;1.85;;;20.70;99.90;;;;;;5017368;28;20253;-80
2021/06/28 05:43:09;;;;;;;2.15;1.67;;;20.80;99.90;;;;;;5022050;28;20190;-78
2021/06/28 05:45:34;;;;;;;1.80;1.70;;;21.00;99.90;;;;;;5021601;28;20704;-79
2021/06/28 05:48:00;;;;;;;2.30;1.85;;;21.40;99.90;;;;;;5020448;28;20217;-79
2021/06/28 05:50:26;;;;;;;2.38;1.95;;;22.10;99.90;;;;;;5020703;28;20182;-80
2021/06/28 05:52:52;;;;;;;2.17;1.70;;;22.50;99.90;;;;;;5020658;28;20560;-79
2021/06/28 05:55:17;;;;;;;2.47;1.77;;;22.60;99.90;;;;;;5021263;28;20273;-80
2021/06/28 05:57:43;;;;;;;2.38;2.17;;;22.60;99.90;;;;;;5024188;28;20207;-79
2021/06/28 06:00:11;;;;;;;2.10;1.90;;;22.40;99.90;;;;;;5022002;28;20237;-80
2021/06/28 06:02:37;;;;;;;1.88;1.77;;;22.40;99.90;;;;;;5019729;28;20203;-78
2021/06/28 06:05:07;;;;;;;2.08;1.88;;;22.50;99.90;;;;;;5020190;28;20713;-80
2021/06/28 06:07:37;;;;;;;2.00;1.70;;;22.70;99.90;;;;;;5021968;28;20211;-77
2021/06/28 06:10:09;;;;;;;2.92;1.63;;;22.90;99.90;;;;;;5019167;28;20183;-79
2021/06/28 06:12:35;;;;;;;2.40;2.20;;;23.10;99.90;;;;;;5018908;28;20563;-80
2021/06/28 06:15:01;;;;;;;2.15;1.85;;;23.50;99.90;;;;;;5021070;28;20199;-80
2021/06/28 06:17:26;;;;;;;2.08;1.88;;;24.10;99.90;;;;;;5020611;28;20230;-80
2021/06/28 06:19:52;;;;;;;2.53;2.30;;;24.30;99.90;;;;;;5020988;28;20240;-79
2021/06/28 06:22:18;;;;;;;2.42;2.22;;;24.20;99.90;;;;;;5023198;28;20647;-80
2021/06/28 06:24:43;;;;;;;2.40;2.20;;;24.20;99.90;;;;;;5020014;28;20187;-79
2021/06/28 06:27:09;;;;;;;2.70;2.10;;;24.80;99.90;;;;;;5019823;28;20218;-79
2021/06/28 06:29:35;;;;;;;2.70;2.45;;;25.10;99.90;;;;;;5020802;28;20194;-80
2021/06/28 06:32:01;;;;;;;2.20;2.00;;;24.90;99.90;;;;;;5019957;28;20187;-80
2021/06/28 06:34:26;;;;;;;2.45;2.05;;;24.60;99.90;;;;;;5019472;28;20262;-80
2021/06/28 06:36:53;;;;;;;2.05;1.90;;;24.60;99.90;;;;;;5018932;28;20589;-80
2021/06/28 06:39:19;;;;;;;2.50;2.25;;;24.80;99.90;;;;;;5022459;28;20225;-80
2021/06/28 06:41:45;;;;;;;2.15;1.95;;;24.90;99.90;;;;;;5020484;28;20211;-80
2021/06/28 06:44:11;;;;;;;2.13;1.92;;;24.80;99.90;;;;;;5019463;28;20190;-80
2021/06/28 06:46:37;;;;;;;2.35;2.00;;;24.60;99.90;;;;;;4984078;28;1072732;-80
2021/06/28 06:49:04;;;;;;;2.50;2.08;;;24.50;99.90;;;;;;5023763;28;20210;-79
2021/06/28 06:51:30;;;;;;;2.20;1.95;;;24.50;99.90;;;;;;5022197;28;20334;-79
2021/06/28 06:53:56;;;;;;;2.33;2.08;;;24.40;99.90;;;;;;5021667;28;20281;-79
2021/06/28 06:56:21;;;;;;;2.78;1.80;;;24.60;99.90;;;;;;5018323;28;20250;-78
2021/06/28 06:58:47;;;;;;;3.83;2.50;;;25.00;99.90;;;;;;5020692;28;20207;-79
2021/06/28 07:01:16;;;;;;;3.13;2.65;;;25.40;99.90;;;;;;5020064;28;20189;-77
2021/06/28 07:03:42;;;;;;;2.20;2.00;;;25.70;99.90;;;;;;5019798;28;20186;-78
2021/06/28 07:06:08;;;;;;;2.03;1.92;;;25.90;99.90;;;;;;5020491;28;20692;-78
2021/06/28 07:08:35;;;;;;;2.85;2.05;;;26.30;99.90;;;;;;5018388;28;20184;-78
2021/06/28 07:11:02;;;;;;;2.40;2.17;;;26.30;99.90;;;;;;5019785;28;20233;-80
2021/06/28 07:13:28;;;;;;;2.22;2.03;;;26.30;99.90;;;;;;5020388;28;20171;-80
2021/06/28 07:15:54;;;;;;;2.47;2.28;;;26.50;99.90;;;;;;5021881;28;20179;-78
2021/06/28 07:18:20;;;;;;;2.30;2.10;;;26.50;99.90;;;;;;5018111;28;20286;-79
2021/06/28 07:20:45;;;;;;;1.67;1.58;;;26.40;99.90;;;;;;5021885;28;20179;-80
2021/06/28 07:23:11;;;;;;;2.30;2.10;;;26.30;99.90;;;;;;5019695;28;20194;-78
2021/06/28 07:25:37;;;;;;;3.33;2.05;;;26.20;99.90;;;;;;5019090;28;20244;-78
2021/06/28 07:28:04;;;;;;;2.47;2.28;;;25.90;99.90;;;;;;5019244;28;20190;-80
2021/06/28 07:30:29;;;;;;;3.53;2.63;;;25.80;99.90;;;;;;5019925;28;20730;-79
2021/06/28 07:32:55;;;;;;;3.08;2.35;;;25.80;99.90;;;;;;5020490;28;20184;-80
2021/06/28 07:35:21;;;;;;;2.60;2.30;;;25.90;99.90;;;;;;5018963;28;20266;-78
2021/06/28 07:37:48;;;;;;;1.95;1.75;;;25.90;99.90;;;;;;5016596;28;20208;-78
2021/06/28 07:40:18;;;;;;;3.55;2.20;;;26.10;99.90;;;;;;5014070;28;20218;-77
2021/06/28 07:42:44;;;;;;;2.25;2.05;;;26.40;99.90;;;;;;5015700;28;20188;-77
2021/06/28 07:45:10;;;;;;;2.60;2.40;;;26.70;99.90;;;;;;5017219;28;20191;-76
2021/06/28 07:47:36;;;;;;;2.00;1.88;;;26.70;99.90;;;;;;5017754;28;20632;-77
2021/06/28 07:50:04;;;;;;;2.70;2.08;;;26.40;99.90;;;;;;5014545;28;20186;-77
2021/06/28 07:52:30;;;;;;;2.13;1.92;;;26.00;99.90;;;;;;5018158;28;20191;-77
2021/06/28 07:54:56;;;;;;;2.10;1.90;;;25.90;99.90;;;;;;5018974;28;20195;-75
2021/06/28 07:57:22;;;;;;;3.28;2.00;;;26.20;99.90;;;;;;5016475;28;20202;-78
2021/06/28 07:59:47;;;;;;;2.30;2.10;;;26.40;99.90;;;;;;5015362;28;20423;-76
2021/06/28 08:02:13;;;;;;;3.17;2.10;;;26.40;99.90;;;;;;5014453;28;20187;-76
2021/06/28 08:04:38;;;;;;;1.98;1.88;;;26.50;99.90;;;;;;5017031;28;20183;-75
2021/06/28 08:07:04;;;;;;;3.75;1.98;;;26.40;99.90;;;;;;5015167;28;20226;-75
2021/06/28 08:09:30;;;;;;;4.63;2.10;;;26.40;99.90;;;;;;5015420;28;20182;-75
2021/06/28 08:11:58;;;;;;;2.42;2.22;;;26.40;99.90;;;;;;5015676;28;20539;-77
2021/06/28 08:14:24;;;;;;;1.95;1.80;;;26.70;99.90;;;;;;5015834;28;20223;-78
2021/06/28 08:16:50;;;;;;;4.18;2.00;;;26.90;99.90;;;;;;5017841;28;20222;-77
2021/06/28 08:19:15;;;;;;;3.60;2.83;;;27.40;99.90;;;;;;5016179;28;20206;-76
2021/06/28 08:21:41;;;;;;;2.13;1.92;;;27.60;99.90;;;;;;5016019;28;20190;-77
2021/06/28 08:24:09;;;;;;;2.83;2.47;;;27.90;99.90;;;;;;5017871;28;20276;-76
2021/06/28 08:26:37;;;;;;;2.58;2.38;;;27.90;99.90;;;;;;5008704;28;20203;-76
2021/06/28 08:29:04;;;;;;;3.80;2.50;;;27.70;99.90;;;;;;5017441;28;20586;-79
2021/06/28 08:31:31;;;;;;;3.20;2.42;;;27.80;99.90;;;;;;5014767;28;20187;-77
2021/06/28 08:33:57;;;;;;;2.45;2.25;;;27.70;99.90;;;;;;5014893;28;20227;-75
2021/06/28 08:36:22;;;;;;;3.13;2.83;;;28.00;99.90;;;;;;5017949;28;20249;-75
2021/06/28 08:38:49;;;;;;;2.63;2.42;;;28.10;99.90;;;;;;5015583;28;20211;-78
2021/06/28 08:41:16;;;;;;;4.70;2.90;;;28.10;99.90;;;;;;5017557;28;20183;-79
2021/06/28 08:43:46;;;;;;;3.67;2.67;;;28.10;99.90;;;;;;5017669;28;20277;-80
2021/06/28 08:46:16;;;;;;;2.95;2.60;;;28.20;99.90;;;;;;5018361;28;20215;-78
2021/06/28 08:48:44;;;;;;;3.10;2.80;;;28.20;99.90;;;;;;5018905;28;20207;-79
2021/06/28 08:51:10;;;;;;;3.72;3.38;;;28.10;99.90;;;;;;5016251;28;20179;-78
2021/06/28 08:53:36;;;;;;;3.17;2.88;;;28.30;99.90;;;;;;5016937;28;20704;-79
2021/06/28 08:56:07;;;;;;;3.83;3.50;;;28.30;99.90;;;;;;5016579;28;20214;-79
2021/06/28 08:58:39;;;;;;;3.30;3.00;;;28.30;99.90;;;;;;5011943;28;20189;-77
2021/06/28 09:01:06;;;;;;;3.67;3.30;;;28.30;99.90;;;;;;5015260;28;20186;-78
2021/06/28 09:03:33;;;;;;;3.40;3.10;;;28.20;99.90;;;;;;5014801;28;20180;-78
2021/06/28 09:06:04;;;;;;;3.60;3.30;;;28.30;99.90;;;;;;5016721;28;20661;-76
2021/06/28 09:08:34;;;;;;;3.28;2.97;;;28.40;99.90;;;;;;5016709;28;20645;-76
2021/06/28 09:11:01;;;;;;;3.72;3.42;;;28.60;99.90;;;;;;5019883;28;20557;-76
2021/06/28 09:13:42;;;;;;;3.08;2.88;;;28.80;99.90;;;;;;5016815;28;20193;-79
2021/06/28 09:16:27;;;;;;;3.53;3.25;;;28.80;99.90;;;;;;5015815;28;20230;-78
2021/06/28 09:19:07;;;;;;;3.00;2.80;;;28.80;99.90;;;;;;5018320;28;20206;-79
2021/06/28 09:21:45;;;;;;;3.25;2.90;;;28.90;99.90;;;;;;5013278;28;20176;-79
2021/06/28 09:24:37;;;;;;;3.58;3.28;;;29.00;99.90;;;;;;5013433;28;20175;-77
2021/06/28 09:27:12;;;;;;;6.68;3.42;;;29.20;99.90;;;;;;5018855;28;20614;-76
2021/06/28 09:29:46;;;;;;;3.42;3.13;;;29.30;99.90;;;;;;5012859;28;20269;-78
2021/06/28 09:32:15;;;;;;;3.20;2.90;;;29.30;99.90;;;;;;5015490;28;20179;-79
2021/06/28 09:34:43;;;;;;;3.25;3.05;;;29.30;99.90;;;;;;5014884;28;20187;-78
2021/06/28 09:37:14;;;;;;;3.35;3.05;;;29.40;99.90;;;;;;5010606;28;20203;-76
2021/06/28 09:39:44;;;;;;;3.30;3.00;;;29.40;99.90;;;;;;5014545;28;20215;-76
2021/06/28 09:42:21;;;;;;;4.00;2.83;;;29.20;99.90;;;;;;5015611;28;20598;-76
2021/06/28 09:44:52;;;;;;;3.28;2.97;;;29.30;99.90;;;;;;5014717;28;20189;-78
2021/06/28 09:47:19;;;;;;;3.90;3.28;;;29.40;99.90;;;;;;5013333;28;20222;-77
2021/06/28 09:50:09;;;;;;;3.40;3.10;;;29.10;99.90;;;;;;5016596;28;20201;-78
2021/06/28 09:52:51;;;;;;;3.08;2.80;;;28.90;99.90;;;;;;5015772;28;20597;-78
2021/06/28 09:55:37;;;;;;;3.30;3.00;;;29.30;99.90;;;;;;5032325;28;20183;-79
2021/06/28 09:58:13;;;;;;;3.55;3.25;;;29.50;99.90;;;;;;5016661;28;20249;-78
2021/06/28 10:00:41;;;;;;;3.42;3.13;;;29.60;99.90;;;;;;5017684;28;20207;-78
2021/06/28 10:03:35;;;;;;;3.65;2.70;;;29.70;99.90;;;;;;5016847;28;20274;-77
2021/06/28 10:08:34;;;;;;;4.45;3.10;;;30.00;99.90;;;;;;5017120;28;20183;-78
2021/06/28 10:11:14;;;;;;;3.20;2.90;;;30.00;99.90;;;;;;5015748;28;20846;-79
2021/06/28 10:13:40;;;;;;;3.05;2.85;;;29.90;99.90;;;;;;5016157;28;20217;-78
2021/06/28 10:16:07;;;;;;;3.53;3.22;;;30.10;99.90;;;;;;5018383;28;20207;-78
2021/06/28 10:18:33;;;;;;;2.97;2.72;;;30.10;99.90;;;;;;5014653;28;20168;-78
2021/06/28 10:20:59;;;;;;;3.53;3.22;;;29.90;99.90;;;;;;5014258;28;20191;-79
2021/06/28 10:23:25;;;;;;;3.72;3.38;;;30.00;99.90;;;;;;5017206;28;20250;-78
2021/06/28 10:25:50;;;;;;;12.07;3.40;;;29.80;99.90;;;;;;5011640;28;20235;-77
2021/06/28 10:28:16;;;;;;;3.75;3.45;;;30.10;99.90;;;;;;5014177;28;20183;-77
2021/06/28 10:30:42;;;;;;;3.85;3.50;;;30.20;99.90;;;;;;5019421;28;20190;-78
2021/06/28 10:33:12;;;;;;;3.72;3.42;;;30.40;99.90;;;;;;5018828;28;20201;-78
2021/06/28 10:35:40;;;;;;;3.45;3.03;;;30.60;99.90;;;;;;5012468;28;20190;-78
2021/06/28 10:38:08;;;;;;;3.33;3.05;;;30.90;99.90;;;;;;5017198;28;20221;-77
2021/06/28 10:40:50;;;;;;;3.30;3.00;;;31.00;99.90;;;;;;5005149;28;20234;-77
2021/06/28 10:43:30;;;;;;;3.28;3.00;;;30.90;99.90;;;;;;5015755;28;20637;-78
2021/06/28 10:45:57;;;;;;;3.03;2.83;;;30.40;99.90;;;;;;5011657;28;20197;-77
2021/06/28 10:48:26;;;;;;;3.08;2.88;;;30.40;99.90;;;;;;5005576;28;20562;-77
2021/06/28 10:51:07;;;;;;;3.40;2.85;;;30.70;99.90;;;;;;5006586;28;20657;-77
2021/06/28 10:53:33;;;;;;;3.03;2.83;;;30.50;99.90;;;;;;5011842;28;20190;-77
2021/06/28 10:56:25;;;;;;;3.50;3.20;;;30.40;99.60;;;;;;5016306;28;20214;-77
2021/06/28 10:59:03;;;;;;;3.00;2.80;;;30.60;99.90;;;;;;5013053;28;20244;-77
2021/06/28 11:01:37;;;;;;;3.33;3.05;;;30.70;99.90;;;;;;5007091;28;20229;-77
2021/06/28 11:04:11;;;;;;;2.75;2.55;;;30.80;99.90;;;;;;5005881;28;20607;-78
2021/06/28 11:07:03;;;;;;;3.33;3.03;;;30.90;99.20;;;;;;5015946;28;20209;-77
2021/06/28 11:09:35;;;;;;;2.95;2.75;;;30.90;98.40;;;;;;5004525;28;20319;-77
2021/06/28 11:12:01;;;;;;;3.85;2.88;;;31.10;99.20;;;;;;5005484;28;20195;-78
2021/06/28 11:14:27;;;;;;;2.92;2.72;;;31.30;98.90;;;;;;5011892;28;20600;-77
2021/06/28 11:17:07;;;;;;;2.50;2.30;;;30.80;98.10;;;;;;5018894;28;20206;-77
2021/06/28 11:19:52;;;;;;;2.70;2.50;;;30.90;99.60;;;;;;5009997;28;20206;-78
2021/06/28 11:22:34;;;;;;;3.10;2.72;;;31.20;98.90;;;;;;5013171;28;20698;-78
2021/06/28 11:25:13;;;;;;;3.80;2.75;;;31.30;98.60;;;;;;5006576;28;20865;-77
2021/06/28 11:27:45;;;;;;;3.00;2.80;;;31.40;98.40;;;;;;5011687;28;20203;-78
2021/06/28 11:30:14;;;;;;;3.03;2.72;;;31.20;98.00;;;;;;5016348;28;20180;-77
2021/06/28 11:32:58;;;;;;;3.30;3.05;;;30.60;97.40;;;;;;5015881;28;20190;-78
2021/06/28 11:35:51;;;;;;;2.97;2.78;;;30.70;98.80;;;;;;5007392;28;20199;-77
2021/06/28 11:38:27;;;;;;;3.10;2.85;;;31.10;97.90;;;;;;5002234;28;20200;-77
2021/06/28 11:41:14;;;;;;;3.35;2.55;;;31.30;97.40;;;;;;5009739;28;20253;-77
2021/06/28 11:43:48;;;;;;;2.80;2.60;;;31.40;96.70;;;;;;5016937;28;20763;-77
2021/06/28 11:46:31;;;;;;;2.67;2.47;;;31.60;96.60;;;;;;5015818;28;20619;-77
2021/06/28 11:49:02;;;;;;;1.98;1.88;;;31.50;96.60;;;;;;5016910;28;20195;-77
2021/06/28 11:51:30;;;;;;;3.25;2.30;;;31.80;97.30;;;;;;5017278;28;20171;-77
2021/06/28 11:53:56;;;;;;;2.72;2.53;;;32.00;96.20;;;;;;5015924;28;20187;-78
2021/06/28 11:56:34;;;;;;;2.53;2.33;;;32.20;95.50;;;;;;5018060;28;20214;-78
2021/06/28 11:59:11;;;;;;;3.45;2.50;;;32.00;93.30;;;;;;5017895;28;20206;-79
2021/06/28 12:02:02;;;;;;;2.90;2.70;;;32.00;94.60;;;;;;5023659;28;20580;-77
2021/06/28 12:04:33;;;;;;;2.45;2.28;;;32.20;94.70;;;;;;5014543;28;20286;-77
2021/06/28 12:07:01;;;;;;;2.58;2.38;;;32.30;94.10;;;;;;5021636;28;20238;-77
2021/06/28 12:09:38;;;;;;;2.60;2.40;;;32.40;94.30;;;;;;5014055;28;20207;-77
2021/06/28 12:12:10;;;;;;;2.67;2.47;;;32.00;93.40;;;;;;5019339;28;20684;-78
2021/06/28 12:14:43;;;;;;;2.70;2.50;;;31.50;94.40;;;;;;5016206;28;20248;-78
2021/06/28 12:17:13;;;;;;;2.60;2.40;;;31.50;93.90;;;;;;5014583;28;20233;-79
2021/06/28 12:20:00;;;;;;;2.70;2.50;;;31.40;94.20;;;;;;5008414;28;20603;-79
2021/06/28 12:22:28;;;;;;;2.55;2.35;;;31.30;94.10;;;;;;5010309;28;20191;-78
2021/06/28 12:25:07;;;;;;;2.83;2.63;;;31.10;95.00;;;;;;5007649;28;20175;-78
2021/06/28 12:27:35;;;;;;;2.70;2.50;;;31.10;95.90;;;;;;5007782;28;20214;-78
2021/06/28 12:30:04;;;;;;;2.47;2.28;;;31.20;96.10;;;;;;5007990;28;20283;-78
2021/06/28 12:32:34;;;;;;;2.75;2.55;;;31.20;95.90;;;;;;5011073;28;20187;-78
2021/06/28 12:35:09;;;;;;;3.03;2.83;;;31.40;95.90;;;;;;5015031;28;20222;-79
2021/06/28 12:37:37;;;;;;;2.80;2.60;;;31.50;96.50;;;;;;5009254;28;20218;-77
2021/06/28 12:40:17;;;;;;;2.53;2.33;;;31.60;96.40;;;;;;5007956;28;20210;-77
2021/06/28 12:42:45;;;;;;;2.92;2.72;;;31.80;96.50;;;;;;5007599;28;20187;-77
2021/06/28 12:45:14;;;;;;;2.67;2.47;;;32.20;95.40;;;;;;5011625;28;20183;-78
2021/06/28 12:47:50;;;;;;;2.88;2.67;;;32.40;95.30;;;;;;5006845;28;20226;-78
2021/06/28 12:50:19;;;;;;;3.00;2.80;;;32.70;95.20;;;;;;5008633;28;20174;-78
2021/06/28 12:52:46;;;;;;;3.03;2.80;;;31.80;94.40;;;;;;5019066;28;20194;-79
2021/06/28 12:55:14;;;;;;;3.67;2.80;;;31.40;94.90;;;;;;5008887;28;20328;-79
2021/06/28 12:57:43;;;;;;;2.83;2.42;;;31.30;96.00;;;;;;5004590;28;20211;-77